Fugaku Maru — JH3428 — position and weather

sailwx.info

Track history (hours):
 
Tides and Currents Weather Stations Pressure Air Temp Water Temp Dewpoint Dewpoint Depression Visibility Wind Speed Wind Dir Waves Ship Positions

Fugaku Maru

Last reported at 2018-Feb-21 04:59 UTC. Time now 2018-Feb-21 05:15 UTC.
Position N 35°03' E 136°53'.

Length 165 m; draft 7.2 m.

Type: Cargo ship. MMSI: 431200176.

Date/timePositionNaut miles runAvg speedWind from/ knotsBaromVisibWave heightAir tempDewpointWater temp
2018-Feb-21 04:59N 35°03' E 136°53'2 4.7
2018-Feb-21 04:30N 35°01' E 136°51'1019.0
2018-Feb-21 04:00N 34°53' E 136°47'1019.4
2018-Feb-21 03:30N 34°43' E 136°50'918.4
2018-Feb-21 02:59N 34°36' E 136°57'1015.1
2018-Feb-21 02:19N 34°32' E 137°09'619.9
2018-Feb-21 02:00N 34°32' E 137°16'2020.3
2018-Feb-21 01:02N 34°32' E 137°40'520.3
2018-Feb-21 00:48N 34°32' E 137°46'720.0
2018-Feb-21 00:26N 34°31' E 137°55'1119.7
2018-Feb-20 23:51N 34°31' E 138°09'719.9
2018-Feb-20 23:29N 34°31' E 138°18'1020.1
2018-Feb-20 23:00N 34°31' E 138°30'1220.6
2018-Feb-20 22:24N 34°32' E 138°45'921.2
2018-Feb-20 22:00N 34°32' E 138°55'1021.2
2018-Feb-20 21:31N 34°34' E 139°07'1020.5
2018-Feb-20 21:00N 34°37' E 139°20'1220.6
2018-Feb-20 20:25N 34°40' E 139°34'920.1
2018-Feb-20 19:59N 34°44' E 139°43'1620.2
2018-Feb-20 19:12N 34°52' E 139°60'419.8
2018-Feb-20 19:00N 34°54' E 140°04'1019.4
2018-Feb-20 18:29N 35°01' E 140°13'34715.7
2018-Feb-19 20:26N 40°42' E 141°31'818.4
2018-Feb-19 19:59N 40°50' E 141°33'918.8
2018-Feb-19 19:31N 40°59' E 141°34'1019.2
2018-Feb-19 19:00N 41°09' E 141°35'919.4
2018-Feb-19 18:31N 41°18' E 141°36'1019.6
2018-Feb-19 18:00N 41°28' E 141°37'1118.7
2018-Feb-19 17:26N 41°38' E 141°35'1016.7
2018-Feb-19 16:51N 41°45' E 141°44'712.3
2018-Feb-19 16:15N 41°51' E 141°38'518.0
2018-Feb-19 16:00N 41°53' E 141°33'422 9.6
2018-Feb-17 20:09N 34°56' E 140°14'320.3
2018-Feb-17 19:59N 34°54' E 140°10'2120.2
2018-Feb-17 18:57N 34°45' E 139°48'919.5
2018-Feb-17 18:30N 34°42' E 139°37'1120.8
2018-Feb-17 17:58N 34°38' E 139°25'1021.0
2018-Feb-17 17:30N 34°35' E 139°14'1121.4
2018-Feb-17 17:00N 34°32' E 139°01'1221.5
2018-Feb-17 16:27N 34°30' E 138°47'1021.4
2018-Feb-17 15:58N 34°29' E 138°35'1321.0
2018-Feb-17 15:22N 34°28' E 138°19'821.4
2018-Feb-17 15:00N 34°29' E 138°10'1020.4
2018-Feb-17 14:30N 34°29' E 137°57'1120.3
2018-Feb-17 13:56N 34°30' E 137°44'1519.8
2018-Feb-17 13:11N 34°31' E 137°25'420.3
2018-Feb-17 13:00N 34°31' E 137°21'1619.0
2018-Feb-17 12:11N 34°32' E 137°02'513.8
2018-Feb-17 11:50N 34°35' E 136°58'720.2
2018-Feb-17 11:30N 34°39' E 136°51'1020.2
2018-Feb-17 11:00N 34°48' E 136°46'1019.6
2018-Feb-17 10:30N 34°58' E 136°48'612.7
2018-Feb-17 10:00N 35°03' E 136°53'0 0.2
2018-Feb-17 09:27N 35°03' E 136°53'0 0.0
2018-Feb-17 08:57N 35°03' E 136°53'0 0.0
2018-Feb-17 08:27N 35°03' E 136°53'0 0.0
2018-Feb-17 07:57N 35°03' E 136°53'0 0.0
2018-Feb-17 07:27N 35°03' E 136°53'0 0.0
2018-Feb-17 06:57N 35°03' E 136°53'0 0.0
2018-Feb-17 06:30N 35°03' E 136°53'0 0.0
2018-Feb-17 05:57N 35°03' E 136°53'1 1.9
2018-Feb-17 05:30N 35°03' E 136°52'610.9
2018-Feb-17 05:00N 34°59' E 136°47'714.6
2018-Feb-17 04:30N 34°52' E 136°46'816.7
2018-Feb-17 04:00N 34°44' E 136°49'816.7
2018-Feb-17 03:30N 34°38' E 136°56'612.4
2018-Feb-17 02:59N 34°33' E 137°01'714.2
2018-Feb-17 02:29N 34°32' E 137°10'919.4
2018-Feb-17 02:00N 34°32' E 137°21'1620.1
2018-Feb-17 01:12N 34°32' E 137°41'519.8
2018-Feb-17 00:58N 34°32' E 137°46'919.7
2018-Feb-17 00:30N 34°32' E 137°57'1218.9
2018-Feb-16 23:52N 34°31' E 138°12'718.3
2018-Feb-16 23:29N 34°31' E 138°20'918.8
2018-Feb-16 23:00N 34°31' E 138°31'1018.8
2018-Feb-16 22:30N 34°32' E 138°43'918.8
2018-Feb-16 22:00N 34°32' E 138°54'1018.9
2018-Feb-16 21:30N 34°35' E 139°05'1019.1
2018-Feb-16 21:00N 34°36' E 139°17'918.9
2018-Feb-16 20:30N 34°39' E 139°28'1120.6
2018-Feb-16 19:59N 34°43' E 139°39'1020.6
2018-Feb-16 19:30N 34°48' E 139°51'919.4
2018-Feb-16 19:01N 34°51' E 140°01'1420.8
2018-Feb-16 18:21N 34°59' E 140°15'34615.9
2018-Feb-15 20:36N 40°39' E 141°32'218.5
2018-Feb-15 20:31N 40°41' E 141°33'1018.8
2018-Feb-15 19:59N 40°51' E 141°34'918.6
2018-Feb-15 19:30N 40°60' E 141°35'918.9
2018-Feb-15 19:01N 41°09' E 141°35'1019.5
2018-Feb-15 18:29N 41°19' E 141°36'1019.6
2018-Feb-15 17:59N 41°29' E 141°37'1019.8
2018-Feb-15 17:30N 41°39' E 141°37'918.8
2018-Feb-15 17:00N 41°48' E 141°37'1811.9
2018-Feb-15 15:32N 42°03' E 141°26'15 0.9
2018-Feb-14 22:46N 41°50' E 141°36'918.4
2018-Feb-14 22:16N 41°41' E 141°36'818.1
2018-Feb-14 21:50N 41°33' E 141°36'718.0
2018-Feb-14 21:26N 41°26' E 141°36'818.3
2018-Feb-14 21:00N 41°18' E 141°36'1018.8
2018-Feb-14 20:28N 41°08' E 141°39'37215.2
2018-Feb-13 20:02N 35°01' E 140°22'718.8
2018-Feb-13 19:38N 34°57' E 140°15'321.2
2018-Feb-13 19:30N 34°55' E 140°12'1020.7
2018-Feb-13 19:00N 34°50' E 140°01'1121.8
2018-Feb-13 18:30N 34°45' E 139°49'1421.5
2018-Feb-13 17:50N 34°39' E 139°34'722.2
2018-Feb-13 17:30N 34°37' E 139°25'1121.7
2018-Feb-13 17:00N 34°33' E 139°13'1021.2
2018-Feb-13 16:31N 34°30' E 139°00'1221.3
2018-Feb-13 15:57N 34°29' E 138°46'1021.4
2018-Feb-13 15:29N 34°29' E 138°34'1020.6
2018-Feb-13 14:59N 34°29' E 138°22'1120.8
2018-Feb-13 14:27N 34°29' E 138°08'920.4
2018-Feb-13 13:59N 34°29' E 137°57'2620.2
2018-Feb-13 12:43N 34°31' E 137°25'720.9
2018-Feb-13 12:24N 34°31' E 137°17'919.6
2018-Feb-13 11:54N 34°31' E 137°06'714.3
2018-Feb-13 11:24N 34°35' E 136°58'820.3
2018-Feb-13 11:00N 34°40' E 136°50'1020.2
2018-Feb-13 10:30N 34°49' E 136°46'918.9
2018-Feb-13 10:00N 34°59' E 136°48'611.5
2018-Feb-13 09:31N 35°03' E 136°53'0 0.1
2018-Feb-13 08:58N 35°03' E 136°53'0 0.0
2018-Feb-13 08:28N 35°03' E 136°53'0 0.0
2018-Feb-13 07:58N 35°03' E 136°53'0 0.0
2018-Feb-13 07:28N 35°03' E 136°53'0 0.0
2018-Feb-13 06:58N 35°03' E 136°53'0 0.0
2018-Feb-13 06:28N 35°03' E 136°53'0 0.0
2018-Feb-13 05:59N 35°03' E 136°53'0 0.0
2018-Feb-13 05:28N 35°03' E 136°53'1 2.3
2018-Feb-13 05:00N 35°02' E 136°52'918.0
2018-Feb-13 04:30N 34°54' E 136°47'1019.5
2018-Feb-13 04:00N 34°45' E 136°49'918.8
2018-Feb-13 03:30N 34°37' E 136°56'713.6
2018-Feb-13 03:00N 34°33' E 137°03'918.9
2018-Feb-13 02:30N 34°33' E 137°14'2219.6
2018-Feb-13 01:24N 34°32' E 137°40'920.1
2018-Feb-13 00:55N 34°32' E 137°52'1019.2
2018-Feb-13 00:24N 34°31' E 138°04'818.4
2018-Feb-12 23:57N 34°31' E 138°14'919.1
2018-Feb-12 23:29N 34°31' E 138°25'919.1
2018-Feb-12 23:00N 34°31' E 138°36'918.5
2018-Feb-12 22:29N 34°32' E 138°48'817.6
2018-Feb-12 22:00N 34°32' E 138°58'917.2
2018-Feb-12 21:30N 34°35' E 139°08'917.5
2018-Feb-12 21:00N 34°36' E 139°18'917.2
2018-Feb-12 20:30N 34°38' E 139°28'1018.1
2018-Feb-12 19:59N 34°42' E 139°39'1119.0
2018-Feb-12 19:25N 34°48' E 139°50'918.7
2018-Feb-12 18:56N 34°53' E 139°59'920.3
2018-Feb-12 18:29N 34°58' E 140°09'1020.4
2018-Feb-12 17:59N 35°03' E 140°19'34215.9
2018-Feb-11 20:31N 40°41' E 141°32'119.1
2018-Feb-11 20:28N 40°42' E 141°32'918.8
2018-Feb-11 20:00N 40°50' E 141°33'918.6
2018-Feb-11 19:30N 40°59' E 141°34'714.6
2018-Feb-11 19:00N 41°07' E 141°34'1019.7
2018-Feb-11 18:29N 41°17' E 141°35'919.0
2018-Feb-11 17:59N 41°26' E 141°39'2315.6
2018-Feb-11 16:33N 41°48' E 141°37'219.0
2018-Feb-11 16:27N 41°49' E 141°35'817.2
2018-Feb-11 16:00N 41°54' E 141°27'  
Track history (hours):
 
Tides and Currents Weather Stations Pressure Air Temp Water Temp Dewpoint Dewpoint Depression Visibility Wind Speed Wind Dir Waves Ship Positions

Fugaku Maru

Last reported at 2018-Feb-21 04:59 UTC. Time now 2018-Feb-21 05:15 UTC.
Position N 35°03' E 136°53'.

Length 165 m; draft 7.2 m.

Type: Cargo ship. MMSI: 431200176.

Date/timePositionNaut miles runAvg speedWind from/ knotsBaromVisibWave heightAir tempDewpointWater temp
2018-Feb-21 04:59N 35°03' E 136°53'2 4.7
2018-Feb-21 04:30N 35°01' E 136°51'1019.0
2018-Feb-21 04:00N 34°53' E 136°47'1019.4
2018-Feb-21 03:30N 34°43' E 136°50'918.4
2018-Feb-21 02:59N 34°36' E 136°57'1015.1
2018-Feb-21 02:19N 34°32' E 137°09'619.9
2018-Feb-21 02:00N 34°32' E 137°16'2020.3
2018-Feb-21 01:02N 34°32' E 137°40'520.3
2018-Feb-21 00:48N 34°32' E 137°46'720.0
2018-Feb-21 00:26N 34°31' E 137°55'1119.7
2018-Feb-20 23:51N 34°31' E 138°09'719.9
2018-Feb-20 23:29N 34°31' E 138°18'1020.1
2018-Feb-20 23:00N 34°31' E 138°30'1220.6
2018-Feb-20 22:24N 34°32' E 138°45'921.2
2018-Feb-20 22:00N 34°32' E 138°55'1021.2
2018-Feb-20 21:31N 34°34' E 139°07'1020.5
2018-Feb-20 21:00N 34°37' E 139°20'1220.6
2018-Feb-20 20:25N 34°40' E 139°34'920.1
2018-Feb-20 19:59N 34°44' E 139°43'1620.2
2018-Feb-20 19:12N 34°52' E 139°60'419.8
2018-Feb-20 19:00N 34°54' E 140°04'1019.4
2018-Feb-20 18:29N 35°01' E 140°13'34715.7
2018-Feb-19 20:26N 40°42' E 141°31'818.4
2018-Feb-19 19:59N 40°50' E 141°33'918.8
2018-Feb-19 19:31N 40°59' E 141°34'1019.2
2018-Feb-19 19:00N 41°09' E 141°35'919.4
2018-Feb-19 18:31N 41°18' E 141°36'1019.6
2018-Feb-19 18:00N 41°28' E 141°37'1118.7
2018-Feb-19 17:26N 41°38' E 141°35'1016.7
2018-Feb-19 16:51N 41°45' E 141°44'712.3
2018-Feb-19 16:15N 41°51' E 141°38'518.0
2018-Feb-19 16:00N 41°53' E 141°33'422 9.6
2018-Feb-17 20:09N 34°56' E 140°14'320.3
2018-Feb-17 19:59N 34°54' E 140°10'2120.2
2018-Feb-17 18:57N 34°45' E 139°48'919.5
2018-Feb-17 18:30N 34°42' E 139°37'1120.8
2018-Feb-17 17:58N 34°38' E 139°25'1021.0
2018-Feb-17 17:30N 34°35' E 139°14'1121.4
2018-Feb-17 17:00N 34°32' E 139°01'1221.5
2018-Feb-17 16:27N 34°30' E 138°47'1021.4
2018-Feb-17 15:58N 34°29' E 138°35'1321.0
2018-Feb-17 15:22N 34°28' E 138°19'821.4
2018-Feb-17 15:00N 34°29' E 138°10'1020.4
2018-Feb-17 14:30N 34°29' E 137°57'1120.3
2018-Feb-17 13:56N 34°30' E 137°44'1519.8
2018-Feb-17 13:11N 34°31' E 137°25'420.3
2018-Feb-17 13:00N 34°31' E 137°21'1619.0
2018-Feb-17 12:11N 34°32' E 137°02'513.8
2018-Feb-17 11:50N 34°35' E 136°58'720.2
2018-Feb-17 11:30N 34°39' E 136°51'1020.2
2018-Feb-17 11:00N 34°48' E 136°46'1019.6
2018-Feb-17 10:30N 34°58' E 136°48'612.7
2018-Feb-17 10:00N 35°03' E 136°53'0 0.2
2018-Feb-17 09:27N 35°03' E 136°53'0 0.0
2018-Feb-17 08:57N 35°03' E 136°53'0 0.0
2018-Feb-17 08:27N 35°03' E 136°53'0 0.0
2018-Feb-17 07:57N 35°03' E 136°53'0 0.0
2018-Feb-17 07:27N 35°03' E 136°53'0 0.0
2018-Feb-17 06:57N 35°03' E 136°53'0 0.0
2018-Feb-17 06:30N 35°03' E 136°53'0 0.0
2018-Feb-17 05:57N 35°03' E 136°53'1 1.9
2018-Feb-17 05:30N 35°03' E 136°52'610.9
2018-Feb-17 05:00N 34°59' E 136°47'714.6
2018-Feb-17 04:30N 34°52' E 136°46'816.7
2018-Feb-17 04:00N 34°44' E 136°49'816.7
2018-Feb-17 03:30N 34°38' E 136°56'612.4
2018-Feb-17 02:59N 34°33' E 137°01'714.2
2018-Feb-17 02:29N 34°32' E 137°10'919.4
2018-Feb-17 02:00N 34°32' E 137°21'1620.1
2018-Feb-17 01:12N 34°32' E 137°41'519.8
2018-Feb-17 00:58N 34°32' E 137°46'919.7
2018-Feb-17 00:30N 34°32' E 137°57'1218.9
2018-Feb-16 23:52N 34°31' E 138°12'718.3
2018-Feb-16 23:29N 34°31' E 138°20'918.8
2018-Feb-16 23:00N 34°31' E 138°31'1018.8
2018-Feb-16 22:30N 34°32' E 138°43'918.8
2018-Feb-16 22:00N 34°32' E 138°54'1018.9
2018-Feb-16 21:30N 34°35' E 139°05'1019.1
2018-Feb-16 21:00N 34°36' E 139°17'918.9
2018-Feb-16 20:30N 34°39' E 139°28'1120.6
2018-Feb-16 19:59N 34°43' E 139°39'1020.6
2018-Feb-16 19:30N 34°48' E 139°51'919.4
2018-Feb-16 19:01N 34°51' E 140°01'1420.8
2018-Feb-16 18:21N 34°59' E 140°15'34615.9
2018-Feb-15 20:36N 40°39' E 141°32'218.5
2018-Feb-15 20:31N 40°41' E 141°33'1018.8
2018-Feb-15 19:59N 40°51' E 141°34'918.6
2018-Feb-15 19:30N 40°60' E 141°35'918.9
2018-Feb-15 19:01N 41°09' E 141°35'1019.5
2018-Feb-15 18:29N 41°19' E 141°36'1019.6
2018-Feb-15 17:59N 41°29' E 141°37'1019.8
2018-Feb-15 17:30N 41°39' E 141°37'918.8
2018-Feb-15 17:00N 41°48' E 141°37'1811.9
2018-Feb-15 15:32N 42°03' E 141°26'15 0.9
2018-Feb-14 22:46N 41°50' E 141°36'918.4
2018-Feb-14 22:16N 41°41' E 141°36'818.1
2018-Feb-14 21:50N 41°33' E 141°36'718.0
2018-Feb-14 21:26N 41°26' E 141°36'818.3
2018-Feb-14 21:00N 41°18' E 141°36'1018.8
2018-Feb-14 20:28N 41°08' E 141°39'37215.2
2018-Feb-13 20:02N 35°01' E 140°22'718.8
2018-Feb-13 19:38N 34°57' E 140°15'321.2
2018-Feb-13 19:30N 34°55' E 140°12'1020.7
2018-Feb-13 19:00N 34°50' E 140°01'1121.8
2018-Feb-13 18:30N 34°45' E 139°49'1421.5
2018-Feb-13 17:50N 34°39' E 139°34'722.2
2018-Feb-13 17:30N 34°37' E 139°25'1121.7
2018-Feb-13 17:00N 34°33' E 139°13'1021.2
2018-Feb-13 16:31N 34°30' E 139°00'1221.3
2018-Feb-13 15:57N 34°29' E 138°46'1021.4
2018-Feb-13 15:29N 34°29' E 138°34'1020.6
2018-Feb-13 14:59N 34°29' E 138°22'1120.8
2018-Feb-13 14:27N 34°29' E 138°08'920.4
2018-Feb-13 13:59N 34°29' E 137°57'2620.2
2018-Feb-13 12:43N 34°31' E 137°25'720.9
2018-Feb-13 12:24N 34°31' E 137°17'919.6
2018-Feb-13 11:54N 34°31' E 137°06'714.3
2018-Feb-13 11:24N 34°35' E 136°58'820.3
2018-Feb-13 11:00N 34°40' E 136°50'1020.2
2018-Feb-13 10:30N 34°49' E 136°46'918.9
2018-Feb-13 10:00N 34°59' E 136°48'611.5
2018-Feb-13 09:31N 35°03' E 136°53'0 0.1
2018-Feb-13 08:58N 35°03' E 136°53'0 0.0
2018-Feb-13 08:28N 35°03' E 136°53'0 0.0
2018-Feb-13 07:58N 35°03' E 136°53'0 0.0
2018-Feb-13 07:28N 35°03' E 136°53'0 0.0
2018-Feb-13 06:58N 35°03' E 136°53'0 0.0
2018-Feb-13 06:28N 35°03' E 136°53'0 0.0
2018-Feb-13 05:59N 35°03' E 136°53'0 0.0
2018-Feb-13 05:28N 35°03' E 136°53'1 2.3
2018-Feb-13 05:00N 35°02' E 136°52'918.0
2018-Feb-13 04:30N 34°54' E 136°47'1019.5
2018-Feb-13 04:00N 34°45' E 136°49'918.8
2018-Feb-13 03:30N 34°37' E 136°56'713.6
2018-Feb-13 03:00N 34°33' E 137°03'918.9
2018-Feb-13 02:30N 34°33' E 137°14'2219.6
2018-Feb-13 01:24N 34°32' E 137°40'920.1
2018-Feb-13 00:55N 34°32' E 137°52'1019.2
2018-Feb-13 00:24N 34°31' E 138°04'818.4
2018-Feb-12 23:57N 34°31' E 138°14'919.1
2018-Feb-12 23:29N 34°31' E 138°25'919.1
2018-Feb-12 23:00N 34°31' E 138°36'918.5
2018-Feb-12 22:29N 34°32' E 138°48'817.6
2018-Feb-12 22:00N 34°32' E 138°58'917.2
2018-Feb-12 21:30N 34°35' E 139°08'917.5
2018-Feb-12 21:00N 34°36' E 139°18'917.2
2018-Feb-12 20:30N 34°38' E 139°28'1018.1
2018-Feb-12 19:59N 34°42' E 139°39'1119.0
2018-Feb-12 19:25N 34°48' E 139°50'918.7
2018-Feb-12 18:56N 34°53' E 139°59'920.3
2018-Feb-12 18:29N 34°58' E 140°09'1020.4
2018-Feb-12 17:59N 35°03' E 140°19'34215.9
2018-Feb-11 20:31N 40°41' E 141°32'119.1
2018-Feb-11 20:28N 40°42' E 141°32'918.8
2018-Feb-11 20:00N 40°50' E 141°33'918.6
2018-Feb-11 19:30N 40°59' E 141°34'714.6
2018-Feb-11 19:00N 41°07' E 141°34'1019.7
2018-Feb-11 18:29N 41°17' E 141°35'919.0
2018-Feb-11 17:59N 41°26' E 141°39'2315.6
2018-Feb-11 16:33N 41°48' E 141°37'219.0
2018-Feb-11 16:27N 41°49' E 141°35'817.2
2018-Feb-11 16:00N 41°54' E 141°27'  

Dump ship's entire track history